Time,TemperatureF,DewpointF,PressureIn,WindDirection,WindDirectionDegrees,WindSpeedMPH,WindSpeedGustMPH,Humidity,HourlyPrecipIn,Conditions,Clouds,dailyrainin,SolarRadiationWatts/m^2,SoftwareType,DateUTC
2013-01-09 00:03:00,45.3,45.0,30.15,ENE,78,0.0,4.0,98,0.00,,,0.01,0,weatherlink.com 1.10,2013-01-09 08:03:00,
2013-01-09 00:19:00,45.2,45.0,30.15,ENE,78,0.0,2.0,98,0.00,,,0.01,0,weatherlink.com 1.10,2013-01-09 08:19:00,
2013-01-09 00:35:00,46.0,46.0,30.16,ENE,78,1.0,2.0,98,0.00,,,0.01,0,weatherlink.com 1.10,2013-01-09 08:35:00,
2013-01-09 00:49:00,45.5,45.0,30.16,ENE,78,2.0,3.0,98,0.00,,,0.01,0,weatherlink.com 1.10,2013-01-09 08:49:00,
2013-01-09 01:04:00,45.2,45.0,30.16,ENE,78,0.0,4.0,98,0.00,,,0.00,0,weatherlink.com 1.10,2013-01-09 09:04:00,
2013-01-09 01:19:00,45.3,45.0,30.15,ENE,76,0.0,2.0,98,0.00,,,0.00,0,weatherlink.com 1.10,2013-01-09 09:19:00,
2013-01-09 01:34:00,45.1,45.0,30.15,NNE,13,2.0,6.0,98,0.00,,,0.00,0,weatherlink.com 1.10,2013-01-09 09:34:00,
2013-01-09 01:49:00,45.5,45.0,30.17,NNE,13,0.0,2.0,98,0.00,,,0.00,0,weatherlink.com 1.10,2013-01-09 09:49:00,
2013-01-09 02:04:00,45.7,45.0,30.16,NE,36,1.0,5.0,98,0.00,,,0.00,0,weatherlink.com 1.10,2013-01-09 10:04:00,
2013-01-09 02:19:00,45.0,45.0,30.15,ENE,59,0.0,5.0,98,0.00,,,0.00,0,weatherlink.com 1.10,2013-01-09 10:19:00,
2013-01-09 02:34:00,45.0,45.0,30.15,NE,43,0.0,7.0,98,0.00,,,0.00,0,weatherlink.com 1.10,2013-01-09 10:34:00,
2013-01-09 02:50:00,45.2,45.0,30.14,NW,320,2.0,7.0,98,0.00,,,0.00,0,weatherlink.com 1.10,2013-01-09 10:50:00,
2013-01-09 03:06:00,45.4,45.0,30.14,ENE,66,0.0,9.0,97,0.00,,,0.00,0,weatherlink.com 1.10,2013-01-09 11:06:00,
2013-01-09 03:21:00,45.3,45.0,30.14,NE,38,0.0,4.0,97,0.00,,,0.00,0,weatherlink.com 1.10,2013-01-09 11:21:00,
2013-01-09 03:35:00,45.2,44.0,30.13,East,94,4.0,7.0,97,0.00,,,0.00,0,weatherlink.com 1.10,2013-01-09 11:35:00,
2013-01-09 03:50:00,44.8,44.0,30.13,ESE,111,2.0,5.0,97,0.00,,,0.00,0,weatherlink.com 1.10,2013-01-09 11:50:00,
2013-01-09 04:06:00,44.3,44.0,30.12,ESE,112,1.0,1.0,97,0.00,,,0.00,0,weatherlink.com 1.10,2013-01-09 12:06:00,
2013-01-09 04:21:00,44.9,44.0,30.12,ESE,112,2.0,3.0,98,0.00,,,0.00,0,weatherlink.com 1.10,2013-01-09 12:21:00,
2013-01-09 04:36:00,45.2,45.0,30.11,ESE,112,0.0,2.0,98,0.00,,,0.00,0,weatherlink.com 1.10,2013-01-09 12:36:00,
2013-01-09 04:50:00,44.1,44.0,30.12,East,101,1.0,2.0,98,0.00,,,0.00,0,weatherlink.com 1.10,2013-01-09 12:50:00,
2013-01-09 05:06:00,44.2,44.0,30.13,East,81,4.0,5.0,99,0.00,,,0.00,0,weatherlink.com 1.10,2013-01-09 13:06:00,
2013-01-09 05:21:00,44.3,44.0,30.13,ENE,62,0.0,7.0,99,0.01,,,0.01,0,weatherlink.com 1.10,2013-01-09 13:21:00,
2013-01-09 05:36:00,44.3,44.0,30.12,NE,55,6.0,8.0,99,0.01,,,0.01,0,weatherlink.com 1.10,2013-01-09 13:36:00,
2013-01-09 05:51:00,44.9,45.0,30.12,ENE,59,0.0,2.0,99,0.01,,,0.01,0,weatherlink.com 1.10,2013-01-09 13:51:00,
2013-01-09 06:06:00,44.7,45.0,30.12,ENE,66,0.0,2.0,99,0.01,,,0.01,0,weatherlink.com 1.10,2013-01-09 14:06:00,
2013-01-09 06:22:00,45.1,45.0,30.12,ENE,66,0.0,1.0,99,0.00,,,0.01,0,weatherlink.com 1.10,2013-01-09 14:22:00,
2013-01-09 06:36:00,45.1,45.0,30.12,ENE,66,0.0,2.0,99,0.00,,,0.01,0,weatherlink.com 1.10,2013-01-09 14:36:00,
2013-01-09 06:51:00,46.2,46.0,30.12,ENE,66,0.0,2.0,99,0.00,,,0.01,0,weatherlink.com 1.10,2013-01-09 14:51:00,
2013-01-09 07:06:00,46.0,46.0,30.12,SE,136,4.0,7.0,99,0.00,,,0.01,0,weatherlink.com 1.10,2013-01-09 15:06:00,
2013-01-09 07:22:00,45.9,46.0,30.12,SE,139,1.0,6.0,99,0.00,,,0.01,0,weatherlink.com 1.10,2013-01-09 15:22:00,
2013-01-09 07:37:00,45.9,46.0,30.11,SE,128,0.0,5.0,99,0.00,,,0.01,0,weatherlink.com 1.10,2013-01-09 15:37:00,
2013-01-09 07:52:00,46.0,46.0,30.12,SE,144,2.0,5.0,99,0.00,,,0.01,7,weatherlink.com 1.10,2013-01-09 15:52:00,
2013-01-09 08:08:00,46.0,46.0,30.12,SSE,163,5.0,7.0,99,0.00,,,0.01,9,weatherlink.com 1.10,2013-01-09 16:08:00,
2013-01-09 08:22:00,46.3,46.0,30.12,ESE,103,1.0,8.0,99,0.00,,,0.01,21,weatherlink.com 1.10,2013-01-09 16:22:00,
2013-01-09 08:37:00,47.5,47.0,30.12,SSE,163,5.0,6.0,99,0.00,,,0.01,56,weatherlink.com 1.10,2013-01-09 16:37:00,
2013-01-09 08:52:00,47.1,47.0,30.12,SE,141,8.0,8.0,99,0.00,,,0.01,97,weatherlink.com 1.10,2013-01-09 16:52:00,
2013-01-09 09:08:00,48.4,48.0,30.11,SE,133,5.0,7.0,99,0.00,,,0.01,120,weatherlink.com 1.10,2013-01-09 17:08:00,
2013-01-09 09:23:00,48.7,49.0,30.11,SE,128,1.0,8.0,99,0.00,,,0.01,130,weatherlink.com 1.10,2013-01-09 17:23:00,
2013-01-09 09:38:00,51.5,51.0,30.11,SE,145,1.0,5.0,99,0.00,,,0.01,185,weatherlink.com 1.10,2013-01-09 17:38:00,
2013-01-09 09:53:00,50.8,50.0,30.10,SE,127,5.0,7.0,97,0.00,,,0.01,229,weatherlink.com 1.10,2013-01-09 17:53:00,
2013-01-09 10:08:00,51.8,51.0,30.10,South,175,2.0,5.0,96,0.00,,,0.01,185,weatherlink.com 1.10,2013-01-09 18:08:00,
2013-01-09 10:23:00,52.1,51.0,30.10,SSW,194,4.0,5.0,96,0.00,,,0.01,186,weatherlink.com 1.10,2013-01-09 18:23:00,
2013-01-09 10:38:00,52.8,52.0,30.09,South,179,2.0,4.0,96,0.00,,,0.01,204,weatherlink.com 1.10,2013-01-09 18:38:00,
2013-01-09 10:53:00,53.2,52.0,30.09,West,267,5.0,9.0,95,0.00,,,0.01,178,weatherlink.com 1.10,2013-01-09 18:53:00,
2013-01-09 11:08:00,53.1,52.0,30.08,WNW,282,6.0,12.0,95,0.00,,,0.01,178,weatherlink.com 1.10,2013-01-09 19:08:00,
2013-01-09 11:33:00,53.6,52.0,30.06,West,281,5.0,11.0,94,0.00,,,0.01,329,weatherlink.com 1.10,2013-01-09 19:33:00,
2013-01-09 11:39:00,54.3,53.0,30.07,WSW,253,6.0,12.0,94,0.00,,,0.01,271,weatherlink.com 1.10,2013-01-09 19:39:00,
2013-01-09 11:54:00,53.6,52.0,30.06,WSW,252,6.0,11.0,93,0.00,,,0.01,156,weatherlink.com 1.10,2013-01-09 19:54:00,
2013-01-09 12:09:00,53.2,51.0,30.06,WSW,258,6.0,9.0,93,0.00,,,0.01,109,weatherlink.com 1.10,2013-01-09 20:09:00,
2013-01-09 12:40:00,53.4,52.0,30.03,WSW,253,1.0,9.0,94,0.00,,,0.01,116,weatherlink.com 1.10,2013-01-09 20:40:00,
2013-01-09 12:54:00,53.4,52.0,30.03,WSW,240,4.0,11.0,94,0.00,,,0.01,76,weatherlink.com 1.10,2013-01-09 20:54:00,
2013-01-09 13:09:00,53.2,52.0,30.02,WSW,241,7.0,10.0,96,0.00,,,0.01,37,weatherlink.com 1.10,2013-01-09 21:09:00,
2013-01-09 13:24:00,51.8,51.0,30.02,WSW,246,14.0,24.0,96,0.01,,,0.02,42,weatherlink.com 1.10,2013-01-09 21:24:00,
2013-01-09 13:41:00,50.7,50.0,30.02,West,259,11.0,27.0,97,0.01,,,0.02,54,weatherlink.com 1.10,2013-01-09 21:41:00,
2013-01-09 13:56:00,50.4,50.0,30.02,WNW,290,11.0,25.0,97,0.01,,,0.02,54,weatherlink.com 1.10,2013-01-09 21:56:00,
2013-01-09 14:10:00,50.3,49.0,30.02,NW,320,21.0,28.0,96,0.01,,,0.02,54,weatherlink.com 1.10,2013-01-09 22:10:00,
2013-01-09 14:25:00,50.6,50.0,30.03,WNW,295,16.0,31.0,96,0.00,,,0.02,72,weatherlink.com 1.10,2013-01-09 22:25:00,
2013-01-09 14:40:00,50.8,49.0,30.02,WNW,295,8.0,24.0,94,0.00,,,0.02,132,weatherlink.com 1.10,2013-01-09 22:40:00,
2013-01-09 14:55:00,51.2,49.0,30.03,NW,314,12.0,26.0,91,0.00,,,0.02,127,weatherlink.com 1.10,2013-01-09 22:55:00,
2013-01-09 15:10:00,50.6,48.0,30.04,SW,232,5.0,32.0,89,0.00,,,0.02,97,weatherlink.com 1.10,2013-01-09 23:10:00,
2013-01-09 15:26:00,50.8,47.0,30.03,North,360,10.0,35.0,85,0.00,,,0.02,134,weatherlink.com 1.10,2013-01-09 23:26:00,
2013-01-09 15:40:00,50.5,47.0,30.03,West,281,12.0,27.0,86,0.00,,,0.02,63,weatherlink.com 1.10,2013-01-09 23:40:00,
2013-01-09 15:55:00,50.4,46.0,30.03,NW,323,15.0,26.0,84,0.00,,,0.02,46,weatherlink.com 1.10,2013-01-09 23:55:00,
2013-01-09 16:11:00,50.6,46.0,30.03,WNW,286,12.0,22.0,83,0.00,,,0.02,49,weatherlink.com 1.10,2013-01-10 00:11:00,
2013-01-09 16:26:00,50.6,46.0,30.03,NW,319,6.0,20.0,83,0.00,,,0.02,39,weatherlink.com 1.10,2013-01-10 00:26:00,
2013-01-09 16:41:00,50.7,45.0,30.03,WNW,291,8.0,24.0,80,0.00,,,0.02,33,weatherlink.com 1.10,2013-01-10 00:41:00,
2013-01-09 16:56:00,50.1,44.0,30.03,WNW,298,8.0,19.0,80,0.00,,,0.02,18,weatherlink.com 1.10,2013-01-10 00:56:00,
2013-01-09 17:11:00,49.5,43.0,30.03,North,355,6.0,22.0,79,0.00,,,0.02,5,weatherlink.com 1.10,2013-01-10 01:11:00,
2013-01-09 17:26:00,49.3,43.0,30.03,NW,313,11.0,18.0,80,0.00,,,0.02,0,weatherlink.com 1.10,2013-01-10 01:26:00,
2013-01-09 17:41:00,49.0,43.0,30.03,NW,326,7.0,19.0,80,0.00,,,0.02,0,weatherlink.com 1.10,2013-01-10 01:41:00,
2013-01-09 17:56:00,49.0,42.0,30.03,WNW,284,13.0,22.0,77,0.00,,,0.02,0,weatherlink.com 1.10,2013-01-10 01:56:00,
2013-01-09 18:11:00,48.7,41.0,30.03,North,360,5.0,16.0,76,0.00,,,0.02,0,weatherlink.com 1.10,2013-01-10 02:11:00,
2013-01-09 18:26:00,48.7,42.0,30.03,West,274,12.0,23.0,79,0.00,,,0.02,0,weatherlink.com 1.10,2013-01-10 02:26:00,
2013-01-09 18:42:00,48.9,42.0,30.03,NW,309,11.0,20.0,78,0.00,,,0.02,0,weatherlink.com 1.10,2013-01-10 02:42:00,
2013-01-09 18:57:00,48.8,43.0,30.04,WNW,290,11.0,18.0,80,0.00,,,0.02,0,weatherlink.com 1.10,2013-01-10 02:57:00,
2013-01-09 19:12:00,48.1,42.0,30.04,NW,323,6.0,11.0,80,0.00,,,0.02,0,weatherlink.com 1.10,2013-01-10 03:12:00,
2013-01-09 19:27:00,48.2,42.0,30.05,NW,304,10.0,26.0,80,0.00,,,0.02,0,weatherlink.com 1.10,2013-01-10 03:27:00,
2013-01-09 19:42:00,48.2,41.0,30.05,NNW,334,8.0,20.0,77,0.00,,,0.02,0,weatherlink.com 1.10,2013-01-10 03:42:00,
2013-01-09 19:57:00,48.3,42.0,30.06,NNW,340,4.0,27.0,79,0.00,,,0.02,0,weatherlink.com 1.10,2013-01-10 03:57:00,
2013-01-09 20:12:00,48.1,43.0,30.06,NW,309,7.0,18.0,81,0.00,,,0.02,0,weatherlink.com 1.10,2013-01-10 04:12:00,
2013-01-09 20:27:00,48.0,42.0,30.06,WNW,292,11.0,18.0,80,0.00,,,0.02,0,weatherlink.com 1.10,2013-01-10 04:27:00,
2013-01-09 20:43:00,47.9,43.0,30.07,WSW,249,7.0,19.0,82,0.00,,,0.02,0,weatherlink.com 1.10,2013-01-10 04:43:00,
2013-01-09 20:58:00,47.9,42.0,30.08,West,281,21.0,35.0,81,0.00,,,0.02,0,weatherlink.com 1.10,2013-01-10 04:58:00,
2013-01-09 21:13:00,46.7,41.0,30.07,WNW,290,6.0,15.0,81,0.00,,,0.02,0,weatherlink.com 1.10,2013-01-10 05:13:00,
2013-01-09 21:58:00,46.9,42.0,30.08,WNW,300,8.0,22.0,84,0.00,,,0.02,0,weatherlink.com 1.10,2013-01-10 05:58:00,
2013-01-09 22:13:00,46.8,42.0,30.08,NNW,335,6.0,13.0,84,0.00,,,0.02,0,weatherlink.com 1.10,2013-01-10 06:13:00,
2013-01-09 22:28:00,47.0,42.0,30.09,WSW,249,7.0,12.0,82,0.00,,,0.02,0,weatherlink.com 1.10,2013-01-10 06:28:00,
2013-01-09 22:43:00,45.6,40.0,30.09,NW,314,2.0,10.0,82,0.01,,,0.03,0,weatherlink.com 1.10,2013-01-10 06:43:00,
2013-01-09 22:58:00,45.0,41.0,30.09,NNW,327,2.0,7.0,84,0.01,,,0.03,0,weatherlink.com 1.10,2013-01-10 06:58:00,
2013-01-09 23:13:00,44.9,40.0,30.10,NNW,342,6.0,13.0,82,0.01,,,0.03,0,weatherlink.com 1.10,2013-01-10 07:13:00,
2013-01-09 23:29:00,44.5,39.0,30.10,NNE,19,5.0,9.0,80,0.00,,,0.03,0,weatherlink.com 1.10,2013-01-10 07:29:00,
2013-01-09 23:44:00,44.1,38.0,30.10,NNW,348,5.0,10.0,79,0.00,,,0.03,0,weatherlink.com 1.10,2013-01-10 07:44:00,
2013-01-09 23:59:00,43.7,38.0,30.10,NNE,13,7.0,8.0,79,0.00,,,0.03,0,weatherlink.com 1.10,2013-01-10 07:59:00,